Madison, Wisconsin
Current Conditions -  °F | °C
As of 11:53 PM on Monday 20 Oct 2014 (Local Time) from KMSN Reporting Station
Overcast Overcast  
Wind Chill: 50°   Ceiling: 4700
Heat Index: 50°   Visibility: 10mi
Dew Point: 39°   Wind: 5mph
Humidity: 66%   Direction: 340°NNW
Pressure: 30.03"   Gusts: NA
Location:  43.07°N, 89.39°W
Report Text: KMSN 210453Z AUTO 34004KT 10SM OVC047 10/04 A3003 RMK AO2 SLP172 T01000039
Loading
Personal Weather Stations






























Interactive Weather Map
Tropical Storm Tracking
New forecast layout! Learn more

10-Day Weather Forecast

Advertisements
Track Severe Weather on mobile